createdAt,value
2023-02-13T00:00:38.303Z,86.78
2023-02-13T00:03:05.176Z,86.72
2023-02-13T00:05:31.714Z,87.51
2023-02-13T00:07:58.177Z,87.59
2023-02-13T00:10:25.049Z,87.95
2023-02-13T00:12:51.543Z,87.88
2023-02-13T00:15:18.064Z,88.32
2023-02-13T00:17:44.512Z,87.83
2023-02-13T00:20:11.568Z,88.21
2023-02-13T00:22:38.382Z,87.93
2023-02-13T00:25:05.787Z,88.42
2023-02-13T00:27:32.277Z,87.40
2023-02-13T00:29:59.392Z,86.74
2023-02-13T00:32:25.961Z,87.88
2023-02-13T00:34:54.608Z,87.86
2023-02-13T00:37:21.083Z,88.10
2023-02-13T00:39:47.512Z,88.28
2023-02-13T00:42:14.184Z,88.29
2023-02-13T00:44:44.087Z,87.70
2023-02-13T00:47:14.572Z,87.56
2023-02-13T00:49:41.562Z,88.20
2023-02-13T00:52:08.071Z,88.26
2023-02-13T00:54:34.510Z,87.65
2023-02-13T00:57:01.021Z,87.37
2023-02-13T00:59:27.661Z,87.26
2023-02-13T01:01:54.174Z,87.98
2023-02-13T01:04:20.672Z,88.66
2023-02-13T01:06:47.174Z,88.34
2023-02-13T01:09:13.643Z,88.73
2023-02-13T01:11:40.131Z,87.95
2023-02-13T01:14:06.843Z,87.54
2023-02-13T01:16:33.359Z,87.40
2023-02-13T01:18:59.848Z,87.93
2023-02-13T01:21:26.338Z,87.81
2023-02-13T01:23:53.208Z,87.21
2023-02-13T01:26:21.280Z,87.78
2023-02-13T01:28:52.450Z,87.90
2023-02-13T01:31:18.950Z,87.12
2023-02-13T01:33:45.803Z,88.04
2023-02-13T01:36:14.210Z,87.69
2023-02-13T01:38:40.811Z,87.07
2023-02-13T01:41:07.946Z,87.92
2023-02-13T01:43:44.678Z,87.96
2023-02-13T01:46:12.086Z,87.70
2023-02-13T01:48:38.556Z,87.99
2023-02-13T01:51:07.885Z,86.98
2023-02-13T01:53:40.389Z,87.66
2023-02-13T01:56:13.333Z,88.18
2023-02-13T01:58:42.532Z,88.50
2023-02-13T02:01:09.636Z,88.33
2023-02-13T02:03:38.177Z,88.34
2023-02-13T02:06:12.001Z,88.72
2023-02-13T02:08:39.126Z,87.90
2023-02-13T02:11:08.511Z,88.66
2023-02-13T02:13:35.112Z,88.29
2023-02-13T02:16:07.154Z,88.47
2023-02-13T02:18:33.618Z,88.35
2023-02-13T02:21:09.433Z,88.94
2023-02-13T02:23:38.997Z,88.69
2023-02-13T02:26:24.027Z,89.15
2023-02-13T02:28:50.513Z,89.02
2023-02-13T02:31:17.189Z,88.99
2023-02-13T02:34:02.324Z,88.86
2023-02-13T02:37:01.136Z,90.67
2023-02-13T02:39:48.957Z,89.78
2023-02-13T02:42:17.555Z,89.62
2023-02-13T02:45:02.938Z,90.41
2023-02-13T02:47:48.122Z,90.27
2023-02-13T02:50:22.436Z,89.42
2023-02-13T02:52:56.689Z,89.93
2023-02-13T02:55:51.239Z,89.45
2023-02-13T02:58:42.482Z,90.52
2023-02-13T03:01:31.434Z,89.22
2023-02-13T03:04:18.479Z,88.87
2023-02-13T03:06:48.349Z,88.86
2023-02-13T03:09:45.763Z,88.79
2023-02-13T03:12:34.345Z,89.90
2023-02-13T03:15:00.790Z,89.60
2023-02-13T03:17:45.653Z,89.57
2023-02-13T03:20:33.929Z,88.67
2023-02-13T03:23:06.559Z,89.60
2023-02-13T03:25:50.548Z,90.04
2023-02-13T03:28:35.728Z,89.54
2023-02-13T03:31:05.413Z,89.77
2023-02-13T03:33:40.713Z,88.97
2023-02-13T03:36:25.883Z,89.60
2023-02-13T03:38:57.312Z,90.30
2023-02-13T03:41:27.669Z,90.46
2023-02-13T03:44:10.996Z,89.95
2023-02-13T03:46:39.687Z,90.80
2023-02-13T03:49:25.877Z,91.05
2023-02-13T03:51:52.314Z,90.00
2023-02-13T03:54:53.263Z,90.25
2023-02-13T03:57:39.677Z,90.98
2023-02-13T04:00:09.786Z,90.23
2023-02-13T04:02:48.136Z,90.51
2023-02-13T04:05:17.244Z,89.91
2023-02-13T04:07:43.757Z,90.45
2023-02-13T04:10:12.070Z,89.89
2023-02-13T04:12:57.138Z,90.07
2023-02-13T04:15:42.272Z,89.76
2023-02-13T04:18:11.477Z,90.40
2023-02-13T04:20:38.313Z,89.98
2023-02-13T04:23:09.575Z,89.76
2023-02-13T04:25:37.736Z,90.33
2023-02-13T04:28:04.304Z,90.09
2023-02-13T04:30:30.862Z,90.71
2023-02-13T04:32:57.368Z,89.80
2023-02-13T04:35:23.993Z,90.16
2023-02-13T04:37:50.426Z,90.56
2023-02-13T04:40:16.988Z,91.16
2023-02-13T04:42:43.515Z,90.80
2023-02-13T04:45:10.062Z,89.50
2023-02-13T04:47:36.497Z,89.83
2023-02-13T04:50:03.068Z,89.78
2023-02-13T04:52:29.535Z,89.03
2023-02-13T04:54:55.953Z,89.38
2023-02-13T04:57:22.392Z,88.67
2023-02-13T04:59:48.831Z,89.01
2023-02-13T05:02:15.364Z,89.10
2023-02-13T05:04:41.833Z,88.80
2023-02-13T05:07:08.443Z,88.38
2023-02-13T05:09:34.925Z,88.90
2023-02-13T05:12:01.888Z,89.33
2023-02-13T05:14:28.432Z,89.27
2023-02-13T05:16:54.936Z,88.84
2023-02-13T05:19:21.397Z,89.31
2023-02-13T05:22:06.730Z,88.68
2023-02-13T05:24:33.226Z,88.54
2023-02-13T05:26:59.685Z,89.68
2023-02-13T05:29:26.270Z,89.70
2023-02-13T05:31:54.224Z,89.28
2023-02-13T05:34:21.571Z,89.82
2023-02-13T05:36:48.042Z,89.09
2023-02-13T05:39:15.337Z,88.31
2023-02-13T05:41:42.754Z,88.39
2023-02-13T05:44:09.241Z,87.89
2023-02-13T05:46:38.969Z,87.94
2023-02-13T05:49:05.620Z,88.08
2023-02-13T05:51:32.085Z,88.00
2023-02-13T05:53:58.765Z,89.03
2023-02-13T05:56:25.263Z,90.36
2023-02-13T05:58:52.823Z,90.09
2023-02-13T06:01:19.764Z,89.29
2023-02-13T06:03:46.314Z,89.21
2023-02-13T06:06:13.031Z,88.80
2023-02-13T06:08:39.474Z,90.39
2023-02-13T06:11:05.985Z,91.15
2023-02-13T06:13:32.447Z,89.58
2023-02-13T06:15:58.940Z,89.95
2023-02-13T06:18:25.485Z,89.73
2023-02-13T06:20:51.947Z,90.05
2023-02-13T06:23:18.456Z,90.33
2023-02-13T06:25:44.895Z,87.49
2023-02-13T06:28:11.505Z,87.88
2023-02-13T06:30:38.049Z,87.70
2023-02-13T06:33:04.697Z,87.85
2023-02-13T06:35:31.151Z,87.39
2023-02-13T06:37:57.633Z,87.17
2023-02-13T06:40:24.139Z,87.37
2023-02-13T06:42:50.628Z,84.98
2023-02-13T06:45:17.102Z,85.08
2023-02-13T06:47:43.923Z,87.25
2023-02-13T06:50:12.516Z,87.77
2023-02-13T06:52:38.990Z,87.66
2023-02-13T06:55:05.936Z,87.57
2023-02-13T06:57:33.222Z,86.89
2023-02-13T07:00:00.522Z,87.80
2023-02-13T07:02:27.025Z,87.25
2023-02-13T07:04:53.564Z,87.11
2023-02-13T07:07:20.055Z,86.25
2023-02-13T07:09:46.490Z,84.85
2023-02-13T07:12:12.917Z,83.38
2023-02-13T07:14:39.353Z,83.26
2023-02-13T07:17:05.916Z,82.69
2023-02-13T07:19:32.456Z,80.95
2023-02-13T07:21:58.900Z,80.14
2023-02-13T07:24:25.702Z,79.95
2023-02-13T07:26:52.381Z,78.33
2023-02-13T07:29:18.803Z,75.87
2023-02-13T07:31:45.326Z,72.87
2023-02-13T07:34:11.812Z,72.04
2023-02-13T07:36:38.251Z,70.88
2023-02-13T07:39:05.046Z,68.99
2023-02-13T07:41:31.592Z,66.80
2023-02-13T07:43:58.096Z,66.48
2023-02-13T07:46:24.558Z,67.87
2023-02-13T07:48:54.511Z,62.75
2023-02-13T07:51:25.162Z,59.68
2023-02-13T07:53:52.516Z,58.28
2023-02-13T07:56:18.987Z,59.53
2023-02-13T07:58:45.489Z,58.12
2023-02-13T08:01:13.839Z,57.32
2023-02-13T08:03:40.601Z,56.42
2023-02-13T08:06:07.601Z,57.01
2023-02-13T08:08:34.604Z,55.67
2023-02-13T08:11:26.030Z,55.40
2023-02-13T08:13:52.713Z,59.34
2023-02-13T08:16:19.353Z,60.90
2023-02-13T08:18:45.887Z,63.45
2023-02-13T08:21:12.429Z,62.98
2023-02-13T08:23:38.981Z,60.51
2023-02-13T08:26:05.412Z,61.56
2023-02-13T08:28:31.928Z,60.45
2023-02-13T08:30:58.458Z,58.79
2023-02-13T08:33:25.063Z,59.83
2023-02-13T08:35:51.508Z,59.16
2023-02-13T08:38:17.985Z,59.63
2023-02-13T08:40:44.448Z,59.56
2023-02-13T08:43:10.894Z,56.52
2023-02-13T08:45:37.557Z,57.44
2023-02-13T08:48:04.224Z,55.38
2023-02-13T08:50:31.030Z,55.32
2023-02-13T08:52:58.185Z,54.30
2023-02-13T08:55:24.758Z,54.49
2023-02-13T08:57:51.259Z,52.84
2023-02-13T09:00:17.803Z,55.23
2023-02-13T09:02:44.269Z,54.24
2023-02-13T09:05:10.806Z,53.52
2023-02-13T09:07:37.334Z,56.22
2023-02-13T09:10:03.908Z,52.97
2023-02-13T09:12:30.340Z,50.96
2023-02-13T09:14:56.939Z,48.12
2023-02-13T09:17:23.363Z,49.19
2023-02-13T09:19:49.840Z,49.84
2023-02-13T09:22:17.308Z,50.47
2023-02-13T09:24:43.796Z,50.58
2023-02-13T09:27:10.259Z,49.61
2023-02-13T09:29:36.816Z,50.18
2023-02-13T09:32:04.504Z,50.72
2023-02-13T09:34:31.033Z,50.25
2023-02-13T09:36:57.484Z,52.22
2023-02-13T09:39:23.998Z,51.20
2023-02-13T09:41:52.611Z,50.36
2023-02-13T09:44:34.434Z,52.42
2023-02-13T09:47:14.944Z,48.21
2023-02-13T09:49:43.346Z,49.78
2023-02-13T09:52:10.081Z,48.92
2023-02-13T09:54:36.582Z,49.22
2023-02-13T09:57:08.008Z,47.17
2023-02-13T09:59:43.987Z,48.08
2023-02-13T10:02:29.341Z,47.49
2023-02-13T10:05:01.833Z,47.34
2023-02-13T10:07:37.496Z,47.05
2023-02-13T10:10:24.236Z,45.70
2023-02-13T10:12:56.195Z,47.60
2023-02-13T10:15:41.536Z,48.96
2023-02-13T10:18:14.526Z,49.27
2023-02-13T10:20:56.747Z,46.82
2023-02-13T10:23:35.495Z,46.95
2023-02-13T10:26:04.194Z,46.52
2023-02-13T10:28:33.716Z,47.45
2023-02-13T10:31:05.277Z,46.94
2023-02-13T10:33:31.792Z,47.75
2023-02-13T10:36:03.115Z,46.26
2023-02-13T10:38:31.666Z,47.14
2023-02-13T10:41:06.542Z,47.78
2023-02-13T10:43:39.887Z,45.95
2023-02-13T10:46:15.725Z,45.44
2023-02-13T10:48:50.619Z,45.72
2023-02-13T10:51:35.995Z,45.57
2023-02-13T10:54:21.389Z,45.13
2023-02-13T10:57:00.216Z,44.26
2023-02-13T10:59:26.653Z,44.23
2023-02-13T11:01:57.857Z,45.17
2023-02-13T11:04:24.489Z,42.10
2023-02-13T11:06:53.824Z,44.19
2023-02-13T11:09:20.536Z,42.62
2023-02-13T11:11:47.311Z,44.08
2023-02-13T11:14:13.738Z,42.67
2023-02-13T11:16:43.200Z,43.55
2023-02-13T11:19:28.605Z,42.38
2023-02-13T11:21:57.634Z,41.64
2023-02-13T11:24:25.218Z,41.80
2023-02-13T11:26:58.462Z,42.35
2023-02-13T11:29:26.942Z,41.50
2023-02-13T11:32:12.661Z,40.89
2023-02-13T11:34:39.293Z,40.71
2023-02-13T11:37:14.674Z,43.08
2023-02-13T11:39:41.689Z,40.94
2023-02-13T11:42:28.009Z,41.50
2023-02-13T11:45:08.438Z,41.03
2023-02-13T11:47:37.165Z,40.04
2023-02-13T11:50:04.963Z,41.93
2023-02-13T11:52:32.944Z,40.57
2023-02-13T11:55:00.212Z,40.66
2023-02-13T11:57:31.196Z,40.49
2023-02-13T11:59:58.411Z,39.88
2023-02-13T12:02:46.229Z,40.23
2023-02-13T12:05:12.736Z,39.87
2023-02-13T12:07:39.712Z,40.83
2023-02-13T12:10:17.956Z,40.47
2023-02-13T12:13:03.233Z,40.07
2023-02-13T12:15:33.820Z,41.06
2023-02-13T12:18:09.185Z,39.56
2023-02-13T12:20:41.177Z,38.37
2023-02-13T12:23:12.536Z,40.34
2023-02-13T12:25:42.091Z,39.70
2023-02-13T12:28:11.834Z,39.05
2023-02-13T12:30:38.346Z,38.86
2023-02-13T12:33:17.102Z,38.64
2023-02-13T12:35:58.860Z,39.08
2023-02-13T12:38:40.675Z,38.78
2023-02-13T12:41:21.517Z,40.44
2023-02-13T12:44:00.193Z,38.95
2023-02-13T12:46:31.044Z,39.86
2023-02-13T12:49:20.204Z,39.75
2023-02-13T12:52:03.792Z,39.60
2023-02-13T12:54:44.549Z,39.25
2023-02-13T12:57:13.904Z,39.21
2023-02-13T12:59:49.546Z,40.82
2023-02-13T13:02:18.775Z,39.55
2023-02-13T13:04:57.348Z,39.16
2023-02-13T13:07:38.472Z,39.59
2023-02-13T13:10:32.829Z,38.38
2023-02-13T13:13:25.661Z,38.24
2023-02-13T13:15:55.347Z,38.53
2023-02-13T13:18:24.944Z,38.91
2023-02-13T13:20:52.066Z,38.52
2023-02-13T13:23:26.453Z,39.48
2023-02-13T13:25:57.475Z,39.25
2023-02-13T13:28:26.347Z,40.30
2023-02-13T13:30:53.512Z,38.90
2023-02-13T13:33:24.561Z,38.04
2023-02-13T13:35:50.980Z,38.45
2023-02-13T13:38:36.867Z,40.79
2023-02-13T13:41:23.586Z,40.50
2023-02-13T13:43:49.985Z,41.20
2023-02-13T13:46:31.752Z,39.68
2023-02-13T13:48:58.944Z,40.54
2023-02-13T13:51:25.595Z,40.90
2023-02-13T13:54:01.455Z,39.88
2023-02-13T13:56:47.856Z,40.99
2023-02-13T13:59:18.558Z,39.89
2023-02-13T14:01:45.161Z,40.40
2023-02-13T14:04:30.256Z,40.53
2023-02-13T14:06:59.773Z,39.89
2023-02-13T14:09:26.194Z,39.63
2023-02-13T14:11:53.360Z,39.66
2023-02-13T14:14:28.852Z,41.48
2023-02-13T14:16:56.349Z,39.54
2023-02-13T14:19:39.780Z,40.61
2023-02-13T14:22:29.401Z,40.12
2023-02-13T14:24:57.540Z,41.75
2023-02-13T14:27:25.684Z,40.03
2023-02-13T14:29:52.405Z,41.21
2023-02-13T14:32:24.931Z,41.58
2023-02-13T14:34:53.593Z,42.88
2023-02-13T14:37:31.968Z,41.74
2023-02-13T14:40:18.637Z,41.80
2023-02-13T14:42:47.307Z,41.84
2023-02-13T14:45:17.118Z,41.99
2023-02-13T14:47:53.489Z,42.21
2023-02-13T14:50:23.373Z,42.20
2023-02-13T14:52:50.689Z,42.03
2023-02-13T14:55:20.757Z,42.03
2023-02-13T14:57:49.239Z,43.88
2023-02-13T15:00:24.956Z,43.51
2023-02-13T15:02:58.635Z,42.24
2023-02-13T15:05:29.809Z,43.43
2023-02-13T15:08:05.307Z,43.35
2023-02-13T15:10:31.746Z,43.32
2023-02-13T15:12:59.309Z,44.01
2023-02-13T15:15:32.191Z,43.09
2023-02-13T15:18:18.889Z,43.87
2023-02-13T15:20:46.280Z,44.99
2023-02-13T15:23:24.559Z,44.47
2023-02-13T15:26:01.271Z,44.85
2023-02-13T15:28:28.030Z,46.81
2023-02-13T15:30:57.181Z,48.47
2023-02-13T15:33:25.168Z,49.00
2023-02-13T15:36:01.760Z,50.42
2023-02-13T15:38:33.393Z,50.89
2023-02-13T15:41:09.018Z,52.56
2023-02-13T15:43:37.543Z,52.96
2023-02-13T15:46:27.431Z,52.22
2023-02-13T15:48:54.640Z,55.03
2023-02-13T15:51:22.502Z,57.59
2023-02-13T15:53:52.984Z,59.52
2023-02-13T15:56:19.601Z,59.89
2023-02-13T15:58:46.528Z,60.57
2023-02-13T16:01:13.558Z,60.48
2023-02-13T16:03:40.585Z,59.91
2023-02-13T16:06:07.806Z,61.37
2023-02-13T16:08:36.066Z,62.53
2023-02-13T16:11:28.813Z,62.92
2023-02-13T16:13:58.286Z,64.71
2023-02-13T16:16:25.107Z,65.09
2023-02-13T16:18:52.249Z,64.97
2023-02-13T16:21:26.375Z,65.67
2023-02-13T16:23:56.892Z,67.35
2023-02-13T16:26:23.532Z,67.91
2023-02-13T16:28:50.068Z,67.42
2023-02-13T16:31:17.124Z,68.30
2023-02-13T16:33:43.757Z,68.33
2023-02-13T16:36:10.191Z,68.86
2023-02-13T16:38:38.057Z,69.25
2023-02-13T16:41:04.537Z,69.18
2023-02-13T16:43:35.190Z,70.37
2023-02-13T16:46:10.741Z,70.79
2023-02-13T16:48:37.560Z,70.13
2023-02-13T16:51:04.154Z,70.47
2023-02-13T16:53:31.952Z,70.62
2023-02-13T16:56:05.758Z,71.78
2023-02-13T16:58:32.222Z,71.36
2023-02-13T17:00:59.508Z,70.65
2023-02-13T17:03:26.208Z,71.08
2023-02-13T17:05:52.655Z,69.69
2023-02-13T17:08:19.179Z,70.21
2023-02-13T17:11:01.359Z,71.16
2023-02-13T17:13:28.005Z,71.34
2023-02-13T17:15:55.234Z,72.39
2023-02-13T17:18:21.915Z,72.91
2023-02-13T17:20:49.567Z,73.55
2023-02-13T17:23:22.383Z,73.00
2023-02-13T17:25:49.770Z,71.90
2023-02-13T17:28:18.621Z,71.92
2023-02-13T17:30:45.848Z,71.64
2023-02-13T17:33:14.731Z,71.80
2023-02-13T17:35:41.193Z,72.54
2023-02-13T17:38:09.514Z,73.20
2023-02-13T17:40:36.253Z,74.19
2023-02-13T17:43:02.777Z,74.63
2023-02-13T17:45:30.407Z,74.69
2023-02-13T17:47:59.567Z,76.16
2023-02-13T17:50:27.782Z,77.22
2023-02-13T17:52:54.713Z,78.81
2023-02-13T17:55:21.149Z,78.56
2023-02-13T17:57:48.165Z,78.86
2023-02-13T18:00:15.205Z,79.39
2023-02-13T18:02:42.652Z,79.33
2023-02-13T18:05:09.837Z,80.15
2023-02-13T18:07:36.365Z,79.96
2023-02-13T18:10:02.855Z,78.99
2023-02-13T18:12:29.377Z,79.38
2023-02-13T18:14:55.791Z,79.21
2023-02-13T18:17:22.386Z,78.43
2023-02-13T18:19:50.450Z,79.88
2023-02-13T18:22:16.986Z,78.50
2023-02-13T18:24:43.495Z,78.32
2023-02-13T18:27:11.310Z,78.61
2023-02-13T18:29:38.150Z,78.45
2023-02-13T18:32:05.738Z,78.39
2023-02-13T18:34:33.108Z,78.72
2023-02-13T18:36:59.667Z,78.49
2023-02-13T18:39:26.158Z,77.96
2023-02-13T18:41:52.695Z,77.77
2023-02-13T18:44:28.157Z,76.93
2023-02-13T18:46:55.298Z,77.32
2023-02-13T18:49:21.713Z,77.43
2023-02-13T18:51:48.156Z,78.04
2023-02-13T18:54:14.729Z,78.14
2023-02-13T18:56:41.469Z,78.49
2023-02-13T18:59:07.908Z,78.49
2023-02-13T19:01:35.424Z,79.59
2023-02-13T19:04:02.753Z,78.84
2023-02-13T19:06:29.544Z,79.09
2023-02-13T19:08:56.678Z,78.91
2023-02-13T19:11:24.768Z,79.06
2023-02-13T19:13:55.383Z,79.68
2023-02-13T19:16:22.568Z,80.03
2023-02-13T19:18:52.946Z,81.85
2023-02-13T19:21:20.416Z,81.80
2023-02-13T19:23:47.030Z,81.41
2023-02-13T19:26:15.319Z,81.40
2023-02-13T19:28:42.079Z,81.00
2023-02-13T19:31:13.762Z,81.76
2023-02-13T19:33:40.714Z,83.97
2023-02-13T19:36:09.550Z,84.33
2023-02-13T19:38:36.568Z,83.14
2023-02-13T19:41:06.620Z,82.79
2023-02-13T19:43:33.179Z,83.50
2023-02-13T19:46:05.021Z,83.24
2023-02-13T19:48:31.932Z,83.19
2023-02-13T19:50:58.667Z,82.15
2023-02-13T19:53:25.482Z,82.60
2023-02-13T19:55:58.151Z,83.38
2023-02-13T19:58:24.584Z,82.53
2023-02-13T20:00:51.128Z,82.65
2023-02-13T20:03:17.569Z,83.05
2023-02-13T20:05:44.163Z,82.92
2023-02-13T20:08:11.132Z,82.78
2023-02-13T20:10:37.777Z,83.35
2023-02-13T20:13:04.780Z,83.97
2023-02-13T20:15:32.416Z,83.76
2023-02-13T20:17:59.053Z,84.16
2023-02-13T20:20:27.737Z,83.83
2023-02-13T20:22:54.214Z,84.11
2023-02-13T20:25:22.100Z,83.52
2023-02-13T20:27:48.613Z,83.72
2023-02-13T20:30:15.622Z,83.96
2023-02-13T20:32:42.801Z,83.28
2023-02-13T20:35:09.539Z,84.29
2023-02-13T20:37:35.962Z,84.29
2023-02-13T20:40:02.459Z,84.26
2023-02-13T20:42:28.990Z,84.27
2023-02-13T20:44:55.441Z,84.71
2023-02-13T20:47:21.935Z,84.90
2023-02-13T20:49:48.418Z,85.93
2023-02-13T20:52:14.875Z,87.24
2023-02-13T20:54:41.480Z,86.95
2023-02-13T20:57:08.069Z,87.93
2023-02-13T20:59:34.511Z,87.60
2023-02-13T21:02:01.046Z,88.78
2023-02-13T21:04:29.079Z,89.96
2023-02-13T21:06:55.753Z,90.48
2023-02-13T21:09:22.199Z,89.50
2023-02-13T21:11:48.738Z,88.71
2023-02-13T21:14:15.207Z,88.42
2023-02-13T21:16:42.039Z,88.65
2023-02-13T21:19:11.749Z,89.27
2023-02-13T21:21:38.858Z,89.51
2023-02-13T21:24:08.369Z,88.78
2023-02-13T21:26:36.863Z,87.96
2023-02-13T21:29:03.419Z,87.45
2023-02-13T21:31:31.910Z,88.04
2023-02-13T21:34:05.467Z,87.71
2023-02-13T21:36:32.810Z,87.05
2023-02-13T21:38:59.978Z,87.97
2023-02-13T21:41:26.417Z,88.42
2023-02-13T21:43:52.951Z,87.53
2023-02-13T21:46:27.081Z,87.28
2023-02-13T21:48:54.483Z,88.28
2023-02-13T21:51:21.560Z,88.12
2023-02-13T21:53:48.739Z,88.43
2023-02-13T21:56:16.992Z,88.27
2023-02-13T21:58:44.242Z,88.50
2023-02-13T22:01:23.989Z,89.35
2023-02-13T22:03:52.325Z,88.74
2023-02-13T22:06:19.899Z,89.33
2023-02-13T22:08:46.686Z,89.92
2023-02-13T22:11:13.242Z,88.34
2023-02-13T22:13:39.760Z,88.84
2023-02-13T22:16:07.666Z,88.47
2023-02-13T22:18:35.995Z,89.11
2023-02-13T22:21:09.780Z,88.07
2023-02-13T22:23:36.982Z,89.59
2023-02-13T22:26:03.830Z,89.64
2023-02-13T22:28:30.508Z,89.64
2023-02-13T22:30:57.537Z,89.78
2023-02-13T22:33:24.273Z,90.95
2023-02-13T22:35:50.731Z,90.81
2023-02-13T22:38:17.391Z,89.82
2023-02-13T22:40:44.259Z,90.59
2023-02-13T22:43:10.697Z,91.01
2023-02-13T22:45:37.848Z,90.20
2023-02-13T22:48:04.929Z,90.83
2023-02-13T22:50:31.513Z,91.42
2023-02-13T22:52:57.986Z,90.74
2023-02-13T22:55:24.440Z,90.51
2023-02-13T22:57:54.272Z,90.68
2023-02-13T23:00:22.490Z,90.54
2023-02-13T23:02:49.573Z,91.71
2023-02-13T23:05:16.461Z,91.71
2023-02-13T23:07:44.128Z,91.35
2023-02-13T23:10:11.341Z,91.55
2023-02-13T23:12:39.044Z,91.62
2023-02-13T23:15:07.067Z,91.39
2023-02-13T23:17:52.050Z,90.96
2023-02-13T23:20:19.141Z,90.76
2023-02-13T23:22:45.632Z,90.55
2023-02-13T23:25:12.376Z,90.51
2023-02-13T23:27:39.161Z,90.36
2023-02-13T23:30:06.790Z,92.10
2023-02-13T23:32:33.366Z,91.21
2023-02-13T23:34:59.814Z,92.66
2023-02-13T23:37:26.345Z,93.14
2023-02-13T23:39:52.768Z,92.21
2023-02-13T23:42:19.257Z,91.69
2023-02-13T23:44:45.704Z,91.68
2023-02-13T23:47:12.174Z,92.37
2023-02-13T23:49:38.624Z,92.58
2023-02-13T23:52:05.075Z,91.93
2023-02-13T23:54:31.559Z,91.58
2023-02-13T23:56:58.059Z,92.12
2023-02-13T23:59:24.651Z,91.98
